createdAt,value
2017-08-14T00:01:05.047Z,18.40
2017-08-14T00:03:31.254Z,18.40
2017-08-14T00:05:57.417Z,18.40
2017-08-14T00:08:23.585Z,18.50
2017-08-14T00:10:50.962Z,18.50
2017-08-14T00:13:17.141Z,18.40
2017-08-14T00:15:43.325Z,18.40
2017-08-14T00:18:09.475Z,18.30
2017-08-14T00:20:35.618Z,18.40
2017-08-14T00:23:01.786Z,18.30
2017-08-14T00:25:28.705Z,18.30
2017-08-14T00:27:54.862Z,18.30
2017-08-14T00:30:21.868Z,18.30
2017-08-14T00:32:48.031Z,18.40
2017-08-14T00:35:14.955Z,18.30
2017-08-14T00:37:56.069Z,18.30
2017-08-14T00:40:22.242Z,18.30
2017-08-14T00:42:48.433Z,18.30
2017-08-14T00:45:14.605Z,18.20
2017-08-14T00:47:40.847Z,18.20
2017-08-14T00:50:07.015Z,18.10
2017-08-14T00:52:33.261Z,18.10
2017-08-14T00:54:59.413Z,18.10
2017-08-14T00:57:26.534Z,18.10
2017-08-14T00:59:52.731Z,18.00
2017-08-14T01:02:19.599Z,18.00
2017-08-14T01:04:45.746Z,18.00
2017-08-14T01:07:11.895Z,18.00
2017-08-14T01:09:38.034Z,18.00
2017-08-14T01:12:04.222Z,17.70
2017-08-14T01:14:30.400Z,17.70
2017-08-14T01:16:57.367Z,17.70
2017-08-14T01:19:24.280Z,17.50
2017-08-14T01:21:50.476Z,17.50
2017-08-14T01:24:16.631Z,17.40
2017-08-14T01:26:42.884Z,17.40
2017-08-14T01:29:09.887Z,17.30
2017-08-14T01:31:36.014Z,17.50
2017-08-14T01:34:02.217Z,17.50
2017-08-14T01:36:28.394Z,17.50
2017-08-14T01:38:54.538Z,17.50
2017-08-14T01:41:20.713Z,17.40
2017-08-14T01:43:46.858Z,17.50
2017-08-14T01:46:13.006Z,17.60
2017-08-14T01:48:39.165Z,17.60
2017-08-14T01:51:06.065Z,17.60
2017-08-14T01:53:32.241Z,17.50
2017-08-14T01:55:58.382Z,17.50
2017-08-14T01:58:24.568Z,17.60
2017-08-14T02:00:51.503Z,17.60
2017-08-14T02:03:17.661Z,17.70
2017-08-14T02:05:44.753Z,17.80
2017-08-14T02:08:11.310Z,17.80
2017-08-14T02:10:37.883Z,17.80
2017-08-14T02:13:04.828Z,17.80
2017-08-14T02:15:31.029Z,17.80
2017-08-14T02:17:57.203Z,17.80
2017-08-14T02:20:23.380Z,17.80
2017-08-14T02:22:49.543Z,17.70
2017-08-14T02:25:16.427Z,17.80
2017-08-14T02:27:42.638Z,17.80
2017-08-14T02:30:08.795Z,17.80
2017-08-14T02:32:34.984Z,17.80
2017-08-14T02:35:01.152Z,17.70
2017-08-14T02:37:27.333Z,17.70
2017-08-14T02:39:53.530Z,17.70
2017-08-14T02:42:20.479Z,17.60
2017-08-14T02:44:46.640Z,17.40
2017-08-14T02:47:13.943Z,17.50
2017-08-14T02:49:40.072Z,17.50
2017-08-14T02:52:06.243Z,17.40
2017-08-14T02:54:32.438Z,17.40
2017-08-14T02:56:58.608Z,17.40
2017-08-14T02:59:26.522Z,17.40
2017-08-14T03:01:52.710Z,17.30
2017-08-14T03:04:18.900Z,17.30
2017-08-14T03:06:45.810Z,17.40
2017-08-14T03:09:11.989Z,17.40
2017-08-14T03:11:38.906Z,17.30
2017-08-14T03:14:05.076Z,17.30
2017-08-14T03:16:31.219Z,17.30
2017-08-14T03:18:57.395Z,17.30
2017-08-14T03:21:23.594Z,17.30
2017-08-14T03:23:49.758Z,17.30
2017-08-14T03:26:17.637Z,17.50
2017-08-14T03:28:44.575Z,17.50
2017-08-14T03:31:11.473Z,17.50
2017-08-14T03:33:37.625Z,17.50
2017-08-14T03:36:03.790Z,17.50
2017-08-14T03:38:30.715Z,17.50
2017-08-14T03:40:56.926Z,17.50
2017-08-14T03:43:23.135Z,17.60
2017-08-14T03:45:49.297Z,17.60
2017-08-14T03:48:16.400Z,17.50
2017-08-14T03:50:42.632Z,17.40
2017-08-14T03:53:08.803Z,17.50
2017-08-14T03:55:34.989Z,17.40
2017-08-14T03:58:01.165Z,17.40
2017-08-14T04:00:28.115Z,17.40
2017-08-14T04:02:55.041Z,17.40
2017-08-14T04:05:21.294Z,17.50
2017-08-14T04:07:48.213Z,17.40
2017-08-14T04:10:14.412Z,17.30
2017-08-14T04:12:40.558Z,17.30
2017-08-14T04:15:07.778Z,17.40
2017-08-14T04:17:33.948Z,17.40
2017-08-14T04:20:00.103Z,17.30
2017-08-14T04:22:27.694Z,17.10
2017-08-14T04:24:53.853Z,17.10
2017-08-14T04:27:20.050Z,17.10
2017-08-14T04:29:46.227Z,17.10
2017-08-14T04:32:12.419Z,17.20
2017-08-14T04:34:39.332Z,17.30
2017-08-14T04:37:05.532Z,17.20
2017-08-14T04:39:31.739Z,17.20
2017-08-14T04:41:57.890Z,17.10
2017-08-14T04:44:24.086Z,17.20
2017-08-14T04:46:50.309Z,17.20
2017-08-14T04:49:16.468Z,17.10
2017-08-14T04:51:42.625Z,17.00
2017-08-14T04:54:08.802Z,17.00
2017-08-14T04:56:35.033Z,16.90
2017-08-14T04:59:04.987Z,16.90
2017-08-14T05:01:31.163Z,16.90
2017-08-14T05:03:57.323Z,16.90
2017-08-14T05:06:23.518Z,16.90
2017-08-14T05:08:49.710Z,17.00
2017-08-14T05:11:15.934Z,17.10
2017-08-14T05:13:42.092Z,17.20
2017-08-14T05:16:08.302Z,17.20
2017-08-14T05:18:34.476Z,17.30
2017-08-14T05:21:00.658Z,17.40
2017-08-14T05:23:27.877Z,17.50
2017-08-14T05:25:54.202Z,17.70
2017-08-14T05:28:20.376Z,17.90
2017-08-14T05:30:46.564Z,18.10
2017-08-14T05:33:12.728Z,18.20
2017-08-14T05:35:39.847Z,18.40
2017-08-14T05:38:06.007Z,19.20
2017-08-14T05:40:32.212Z,18.60
2017-08-14T05:42:59.143Z,18.70
2017-08-14T05:45:25.306Z,18.70
2017-08-14T05:47:51.509Z,18.70
2017-08-14T05:50:18.420Z,18.90
2017-08-14T05:52:44.574Z,18.90
2017-08-14T05:55:10.759Z,19.00
2017-08-14T05:57:36.951Z,19.70
2017-08-14T06:00:03.845Z,20.10
2017-08-14T06:02:30.045Z,20.30
2017-08-14T06:04:56.191Z,20.60
2017-08-14T06:07:22.391Z,20.90
2017-08-14T06:09:48.577Z,21.00
2017-08-14T06:12:15.230Z,21.10
2017-08-14T06:14:41.453Z,21.30
2017-08-14T06:17:07.685Z,21.40
2017-08-14T06:19:33.877Z,21.60
2017-08-14T06:22:00.034Z,21.80
2017-08-14T06:24:26.192Z,22.00
2017-08-14T06:26:52.409Z,22.10
2017-08-14T06:29:19.691Z,22.30
2017-08-14T06:31:45.888Z,22.50
2017-08-14T06:34:12.796Z,22.70
2017-08-14T06:36:38.920Z,22.70
2017-08-14T06:39:05.125Z,23.10
2017-08-14T06:41:31.281Z,23.30
2017-08-14T06:43:57.479Z,23.30
2017-08-14T06:46:23.646Z,23.50
2017-08-14T06:48:49.793Z,23.50
2017-08-14T06:51:16.702Z,24.00
2017-08-14T06:53:42.901Z,24.20
2017-08-14T06:56:10.063Z,24.30
2017-08-14T06:58:37.222Z,24.60
2017-08-14T07:01:03.875Z,24.60
2017-08-14T07:03:30.025Z,24.90
2017-08-14T07:05:56.198Z,24.60
2017-08-14T07:08:22.383Z,24.10
2017-08-14T07:10:48.561Z,24.00
2017-08-14T07:13:14.767Z,23.60
2017-08-14T07:15:40.935Z,23.30
2017-08-14T07:18:07.102Z,23.00
2017-08-14T07:20:34.594Z,22.50
2017-08-14T07:23:00.755Z,22.50
2017-08-14T07:25:26.917Z,22.50
2017-08-14T07:27:53.805Z,22.70
2017-08-14T07:40:10.051Z,25.00
2017-08-14T07:42:37.195Z,26.80
2017-08-14T07:45:03.363Z,25.60
2017-08-14T07:47:29.520Z,25.50
2017-08-14T07:49:55.687Z,24.70
2017-08-14T07:52:21.901Z,24.10
2017-08-14T07:54:48.828Z,23.70
2017-08-14T07:57:15.017Z,23.70
2017-08-14T07:59:41.198Z,23.60
2017-08-14T08:02:08.103Z,23.20
2017-08-14T08:04:35.175Z,23.20
2017-08-14T08:07:01.382Z,23.10
2017-08-14T08:09:27.540Z,23.20
2017-08-14T08:11:54.471Z,23.20
2017-08-14T08:14:21.382Z,23.20
2017-08-14T08:16:47.550Z,23.10
2017-08-14T08:19:13.740Z,23.00
2017-08-14T08:21:39.933Z,22.70
2017-08-14T08:24:06.114Z,22.70
2017-08-14T08:26:33.929Z,23.30
2017-08-14T08:29:00.098Z,22.90
2017-08-14T08:31:26.246Z,22.90
2017-08-14T08:33:53.178Z,22.40
2017-08-14T08:36:19.346Z,22.40
2017-08-14T08:38:47.020Z,22.20
2017-08-14T08:41:13.182Z,22.00
2017-08-14T08:43:39.370Z,22.00
2017-08-14T08:46:06.304Z,22.10
2017-08-14T08:48:33.236Z,22.30
2017-08-14T08:50:59.407Z,22.70
2017-08-14T08:53:25.543Z,22.90
2017-08-14T08:55:52.479Z,22.90
2017-08-14T08:58:18.634Z,22.90
2017-08-14T09:00:44.830Z,22.80
2017-08-14T09:03:10.983Z,22.50
2017-08-14T09:05:37.136Z,22.20
2017-08-14T09:08:03.383Z,22.00
2017-08-14T09:10:29.652Z,21.80
2017-08-14T09:12:55.893Z,21.70
2017-08-14T09:15:22.623Z,21.70
2017-08-14T09:17:48.859Z,21.70
2017-08-14T09:30:00.354Z,22.30
2017-08-14T09:32:26.536Z,22.60
2017-08-14T09:34:53.252Z,22.70
2017-08-14T09:37:20.191Z,23.60
2017-08-14T09:39:47.075Z,24.20
2017-08-14T09:42:13.266Z,24.20
2017-08-14T09:44:40.834Z,24.80
2017-08-14T09:47:07.024Z,24.80
2017-08-14T09:49:33.181Z,24.60
2017-08-14T09:52:00.102Z,24.90
2017-08-14T09:54:26.277Z,24.90
2017-08-14T09:56:52.458Z,25.20
2017-08-14T09:59:18.662Z,25.30
2017-08-14T10:01:44.842Z,25.60
2017-08-14T10:04:11.755Z,26.50
2017-08-14T10:06:37.921Z,26.50
2017-08-14T10:09:04.096Z,27.60
2017-08-14T10:11:31.094Z,27.60
2017-08-14T10:13:57.990Z,27.90
2017-08-14T10:16:24.182Z,27.90
2017-08-14T10:18:50.378Z,27.90
2017-08-14T10:21:16.996Z,27.80
2017-08-14T10:23:43.139Z,27.30
2017-08-14T10:26:09.291Z,27.20
2017-08-14T10:28:35.424Z,27.20
2017-08-14T10:31:01.594Z,27.00
2017-08-14T10:33:28.163Z,27.30
2017-08-14T10:35:54.362Z,27.90
2017-08-14T10:38:20.521Z,28.00
2017-08-14T10:40:47.453Z,27.90
2017-08-14T10:43:13.654Z,27.90
2017-08-14T10:45:39.846Z,28.00
2017-08-14T10:48:06.817Z,28.10
2017-08-14T10:50:33.019Z,28.10
2017-08-14T10:52:59.233Z,28.10
2017-08-14T10:55:26.196Z,28.50
2017-08-14T10:57:52.334Z,28.50
2017-08-14T11:00:18.471Z,28.50
2017-08-14T11:02:44.683Z,28.60
2017-08-14T11:05:11.722Z,28.80
2017-08-14T11:07:38.402Z,28.80
2017-08-14T11:10:04.575Z,29.20
2017-08-14T11:12:31.503Z,29.40
2017-08-14T11:14:57.667Z,29.40
2017-08-14T11:17:23.862Z,29.20
2017-08-14T11:19:50.066Z,29.10
2017-08-14T11:32:01.363Z,30.20
2017-08-14T11:34:28.267Z,29.40
2017-08-14T11:36:54.433Z,29.40
2017-08-14T11:39:21.322Z,28.20
2017-08-14T11:41:47.462Z,28.20
2017-08-14T11:44:13.589Z,27.80
2017-08-14T11:46:39.841Z,28.30
2017-08-14T11:49:05.991Z,29.00
2017-08-14T11:51:32.193Z,29.10
2017-08-14T11:54:00.979Z,28.80
2017-08-14T11:56:28.344Z,28.80
2017-08-14T11:58:54.577Z,29.00
2017-08-14T12:01:21.474Z,29.20
2017-08-14T12:03:47.682Z,28.90
2017-08-14T12:06:13.994Z,28.40
2017-08-14T12:08:40.870Z,28.20
2017-08-14T12:11:07.119Z,28.10
2017-08-14T12:13:33.295Z,28.10
2017-08-14T12:15:59.505Z,28.20
2017-08-14T12:18:26.430Z,28.30
2017-08-14T12:20:52.640Z,28.20
2017-08-14T12:23:18.811Z,28.30
2017-08-14T12:25:45.715Z,28.90
2017-08-14T12:28:11.885Z,28.90
2017-08-14T12:30:38.066Z,29.20
2017-08-14T12:33:04.303Z,29.10
2017-08-14T12:35:31.387Z,28.60
2017-08-14T12:37:57.555Z,28.80
2017-08-14T12:40:24.465Z,28.40
2017-08-14T12:42:51.942Z,28.50
2017-08-14T12:45:18.146Z,28.80
2017-08-14T12:47:46.594Z,28.80
2017-08-14T12:50:12.800Z,28.70
2017-08-14T12:52:39.137Z,28.50
2017-08-14T12:55:05.323Z,28.60
2017-08-14T12:57:32.225Z,29.50
2017-08-14T12:59:58.386Z,29.40
2017-08-14T13:02:24.577Z,30.60
2017-08-14T13:04:50.703Z,30.40
2017-08-14T13:07:16.870Z,30.60
2017-08-14T13:09:43.056Z,31.80
2017-08-14T13:12:10.040Z,32.30
2017-08-14T13:14:36.214Z,31.70
2017-08-14T13:26:52.435Z,28.00
2017-08-14T13:29:24.983Z,27.60
2017-08-14T13:31:56.902Z,27.40
2017-08-14T13:34:23.065Z,27.40
2017-08-14T13:36:49.253Z,27.30
2017-08-14T13:39:16.175Z,27.20
2017-08-14T13:41:42.768Z,27.50
2017-08-14T13:44:09.911Z,28.40
2017-08-14T13:46:36.772Z,28.40
2017-08-14T13:49:03.003Z,29.50
2017-08-14T13:51:29.222Z,29.10
2017-08-14T13:53:55.402Z,28.90
2017-08-14T13:56:22.313Z,27.60
2017-08-14T13:58:48.530Z,27.60
2017-08-14T14:01:15.925Z,27.20
2017-08-14T14:03:42.398Z,27.10
2017-08-14T14:06:08.644Z,27.10
2017-08-14T14:08:34.834Z,27.40
2017-08-14T14:11:01.056Z,27.50
2017-08-14T14:13:27.246Z,28.00
2017-08-14T14:15:53.702Z,28.20
2017-08-14T14:18:19.909Z,28.50
2017-08-14T14:20:46.916Z,28.60
2017-08-14T14:23:13.102Z,28.70
2017-08-14T14:25:40.186Z,28.30
2017-08-14T14:28:06.401Z,27.90
2017-08-14T14:30:32.631Z,27.90
2017-08-14T14:32:59.531Z,27.60
2017-08-14T14:35:25.767Z,27.90
2017-08-14T14:37:51.943Z,27.90
2017-08-14T14:40:18.850Z,27.60
2017-08-14T14:42:45.080Z,27.40
2017-08-14T14:45:11.300Z,27.30
2017-08-14T14:47:38.069Z,27.30
2017-08-14T14:50:04.694Z,26.90
2017-08-14T14:52:30.906Z,26.70
2017-08-14T14:54:57.064Z,26.70
2017-08-14T14:57:31.894Z,26.80
2017-08-14T14:59:58.206Z,26.80
2017-08-14T15:02:24.387Z,26.80
2017-08-14T15:04:50.597Z,26.70
2017-08-14T15:07:17.504Z,26.70
2017-08-14T15:09:43.654Z,26.60
2017-08-14T15:12:10.968Z,26.40
2017-08-14T15:14:38.721Z,25.30
2017-08-14T15:17:04.907Z,26.50
2017-08-14T15:19:31.809Z,26.60
2017-08-14T15:21:57.982Z,26.40
2017-08-14T15:24:25.287Z,26.50
2017-08-14T15:26:51.526Z,26.30
2017-08-14T15:29:17.695Z,26.40
2017-08-14T15:31:44.617Z,26.30
2017-08-14T15:34:12.766Z,26.30
2017-08-14T15:36:54.373Z,26.20
2017-08-14T15:39:20.926Z,26.20
2017-08-14T15:41:47.944Z,26.10
2017-08-14T15:44:14.144Z,25.90
2017-08-14T15:46:40.290Z,24.30
2017-08-14T15:49:06.510Z,26.30
2017-08-14T15:51:32.700Z,26.30
2017-08-14T15:53:59.583Z,26.20
2017-08-14T15:56:25.760Z,26.30
2017-08-14T15:58:52.947Z,26.50
2017-08-14T16:01:19.150Z,26.10
2017-08-14T16:03:46.163Z,26.60
2017-08-14T16:06:12.961Z,26.60
2017-08-14T16:08:39.873Z,26.60
2017-08-14T16:11:06.078Z,26.50
2017-08-14T16:13:32.632Z,26.50
2017-08-14T16:15:58.811Z,26.40
2017-08-14T16:18:25.015Z,26.40
2017-08-14T16:20:51.953Z,26.30
2017-08-14T16:23:18.844Z,26.10
2017-08-14T16:25:45.008Z,26.10
2017-08-14T16:28:11.171Z,25.90
2017-08-14T16:30:37.431Z,25.90
2017-08-14T16:33:03.610Z,25.60
2017-08-14T16:35:30.579Z,25.70
2017-08-14T16:37:56.759Z,25.80
2017-08-14T16:40:22.926Z,25.70
2017-08-14T16:42:49.109Z,25.60
2017-08-14T16:45:15.293Z,25.60
2017-08-14T16:47:42.395Z,25.60
2017-08-14T16:50:08.945Z,25.60
2017-08-14T16:52:36.232Z,25.70
2017-08-14T16:55:02.378Z,25.70
2017-08-14T16:57:28.591Z,25.70
2017-08-14T16:59:54.762Z,25.70
2017-08-14T17:02:20.922Z,25.50
2017-08-14T17:04:47.849Z,25.30
2017-08-14T17:07:14.135Z,25.30
2017-08-14T17:09:40.301Z,25.30
2017-08-14T17:12:08.033Z,25.10
2017-08-14T17:14:34.231Z,25.20
2017-08-14T17:17:00.426Z,25.10
2017-08-14T17:19:26.605Z,25.10
2017-08-14T17:21:52.783Z,25.10
2017-08-14T17:24:18.966Z,25.00
2017-08-14T17:26:45.127Z,25.00
2017-08-14T17:29:11.325Z,25.00
2017-08-14T17:31:37.546Z,25.00
2017-08-14T17:34:03.706Z,25.00
2017-08-14T17:36:30.059Z,25.00
2017-08-14T17:38:56.268Z,25.00
2017-08-14T17:41:24.154Z,25.00
2017-08-14T17:43:50.451Z,24.90
2017-08-14T17:46:16.614Z,24.90
2017-08-14T17:48:42.798Z,25.00
2017-08-14T17:51:09.009Z,25.00
2017-08-14T17:53:35.263Z,24.90
2017-08-14T17:56:01.431Z,24.90
2017-08-14T17:58:28.371Z,24.80
2017-08-14T18:00:54.632Z,24.80
2017-08-14T18:03:20.795Z,24.80
2017-08-14T18:05:47.031Z,24.70
2017-08-14T18:08:13.184Z,24.80
2017-08-14T18:10:39.420Z,24.80
2017-08-14T18:13:05.950Z,24.80
2017-08-14T18:15:32.878Z,24.70
2017-08-14T18:17:59.129Z,24.70
2017-08-14T18:20:25.339Z,24.60
2017-08-14T18:22:51.523Z,24.50
2017-08-14T18:25:19.697Z,24.50
2017-08-14T18:27:45.915Z,24.50
2017-08-14T18:30:12.139Z,24.40
2017-08-14T18:32:38.357Z,24.30
2017-08-14T18:35:05.308Z,24.20
2017-08-14T18:37:31.525Z,24.10
2017-08-14T18:39:58.122Z,24.10
2017-08-14T18:42:24.290Z,24.00
2017-08-14T18:44:53.218Z,23.80
2017-08-14T18:47:20.916Z,23.80
2017-08-14T18:49:47.087Z,23.70
2017-08-14T18:52:14.446Z,23.70
2017-08-14T18:54:41.347Z,23.60
2017-08-14T18:57:08.441Z,23.50
2017-08-14T18:59:34.687Z,23.00
2017-08-14T19:02:01.106Z,23.50
2017-08-14T19:04:27.328Z,23.40
2017-08-14T19:06:54.255Z,23.40
2017-08-14T19:09:21.856Z,23.30
2017-08-14T19:11:46.697Z,23.30
2017-08-14T19:14:14.343Z,23.20
2017-08-14T19:16:42.164Z,23.20
2017-08-14T19:19:11.440Z,23.20
2017-08-14T19:21:42.497Z,23.10
2017-08-14T19:24:12.665Z,23.10
2017-08-14T19:26:38.977Z,23.10
2017-08-14T19:38:55.923Z,22.90
2017-08-14T19:41:23.261Z,22.90
2017-08-14T19:43:49.547Z,22.90
2017-08-14T19:46:15.749Z,22.80
2017-08-14T19:48:42.692Z,22.80
2017-08-14T19:51:10.103Z,22.70
2017-08-14T19:53:36.333Z,22.70
2017-08-14T19:56:02.560Z,22.70
2017-08-14T19:58:28.773Z,22.60
2017-08-14T20:00:54.991Z,22.60
2017-08-14T20:03:22.884Z,22.50
2017-08-14T20:05:52.584Z,22.50
2017-08-14T20:08:18.776Z,22.50
2017-08-14T20:10:45.732Z,22.40
2017-08-14T20:13:11.920Z,22.40
2017-08-14T20:15:38.123Z,22.40
2017-08-14T20:18:05.141Z,22.40
2017-08-14T20:20:31.363Z,22.30
2017-08-14T20:22:57.605Z,22.30
2017-08-14T20:25:23.808Z,22.30
2017-08-14T20:40:50.042Z,22.10
2017-08-14T20:43:16.249Z,22.10
2017-08-14T20:45:42.459Z,22.00
2017-08-14T20:48:09.420Z,22.00
2017-08-14T20:50:37.458Z,22.00
2017-08-14T20:53:03.699Z,21.90
2017-08-14T20:55:29.904Z,21.90
2017-08-14T20:57:56.160Z,21.90
2017-08-14T21:00:22.311Z,21.90
2017-08-14T21:02:49.238Z,21.90
2017-08-14T21:05:15.745Z,21.90
2017-08-14T21:07:42.035Z,21.80
2017-08-14T21:10:08.977Z,21.80
2017-08-14T21:12:35.896Z,21.80
2017-08-14T21:15:02.104Z,21.70
2017-08-14T21:17:28.267Z,21.70
2017-08-14T21:19:55.167Z,21.60
2017-08-14T21:22:21.311Z,21.60
2017-08-14T21:24:47.526Z,21.60
2017-08-14T21:27:13.693Z,21.80
2017-08-14T21:29:39.856Z,21.60
2017-08-14T21:32:06.056Z,21.50
2017-08-14T21:34:33.033Z,21.50
2017-08-14T21:36:59.977Z,21.50
2017-08-14T21:39:26.150Z,21.50
2017-08-14T21:41:52.380Z,21.50
2017-08-14T21:44:18.573Z,21.50
2017-08-14T21:46:44.734Z,21.50
2017-08-14T21:49:11.894Z,21.40
2017-08-14T21:51:38.100Z,21.40
2017-08-14T21:54:04.354Z,21.50
2017-08-14T21:56:31.288Z,21.50
2017-08-14T21:58:57.447Z,21.40
2017-08-14T22:01:24.370Z,21.30
2017-08-14T22:03:50.560Z,21.30
2017-08-14T22:06:16.732Z,21.30
2017-08-14T22:08:42.922Z,21.30
2017-08-14T22:11:10.174Z,21.30
2017-08-14T22:13:37.227Z,21.30
2017-08-14T22:16:03.441Z,21.30
2017-08-14T22:18:30.044Z,21.30
2017-08-14T22:20:57.063Z,21.30
2017-08-14T22:23:23.302Z,21.30
2017-08-14T22:25:49.517Z,21.20
2017-08-14T22:28:15.712Z,21.20
2017-08-14T22:30:41.901Z,21.20
2017-08-14T22:33:09.355Z,21.20
2017-08-14T22:35:36.278Z,21.20
2017-08-14T22:38:02.472Z,21.20
2017-08-14T22:40:28.625Z,21.20
2017-08-14T22:42:54.810Z,21.20
2017-08-14T22:45:20.972Z,21.10
2017-08-14T22:47:48.971Z,21.10
2017-08-14T22:50:15.211Z,21.00
2017-08-14T22:52:41.355Z,20.90
2017-08-14T22:55:08.301Z,20.90
2017-08-14T22:57:36.776Z,20.90
2017-08-14T23:00:03.698Z,20.90
2017-08-14T23:02:30.602Z,20.90
2017-08-14T23:04:56.826Z,20.90
2017-08-14T23:07:23.006Z,20.90
2017-08-14T23:09:49.179Z,20.80
2017-08-14T23:12:15.402Z,20.80
2017-08-14T23:14:41.555Z,20.80
2017-08-14T23:17:07.738Z,20.80
2017-08-14T23:19:34.662Z,20.70
2017-08-14T23:22:00.854Z,20.70
2017-08-14T23:24:27.059Z,20.70
2017-08-14T23:26:53.802Z,20.70
2017-08-14T23:29:20.970Z,20.70
2017-08-14T23:31:47.144Z,20.70
2017-08-14T23:34:14.087Z,20.60
2017-08-14T23:36:40.225Z,20.60
2017-08-14T23:39:07.146Z,20.60
2017-08-14T23:41:33.298Z,20.60
2017-08-14T23:44:00.174Z,20.50
2017-08-14T23:46:26.795Z,20.50
2017-08-14T23:48:53.403Z,20.50
2017-08-14T23:51:19.527Z,20.50
2017-08-14T23:53:45.734Z,20.50
2017-08-14T23:56:11.909Z,20.50
2017-08-14T23:58:38.855Z,20.40
